createdAt,value
2018-09-23T00:00:50.887Z,12.90
2018-09-23T00:03:19.808Z,13.73
2018-09-23T00:05:48.437Z,13.20
2018-09-23T00:08:17.036Z,13.03
2018-09-23T00:10:48.843Z,11.07
2018-09-23T00:13:17.442Z,12.23
2018-09-23T00:15:46.042Z,13.93
2018-09-23T00:18:14.678Z,14.83
2018-09-23T00:20:43.237Z,13.27
2018-09-23T00:23:11.823Z,13.87
2018-09-23T00:25:40.459Z,14.23
2018-09-23T00:28:09.032Z,14.67
2018-09-23T00:30:37.632Z,13.97
2018-09-23T00:33:06.243Z,15.37
2018-09-23T00:35:34.850Z,12.93
2018-09-23T00:38:03.464Z,14.47
2018-09-23T00:40:32.145Z,14.83
2018-09-23T00:43:00.753Z,16.77
2018-09-23T00:45:43.488Z,14.80
2018-09-23T00:48:19.005Z,15.77
2018-09-23T00:50:49.968Z,15.03
2018-09-23T00:53:18.517Z,17.00
2018-09-23T00:55:47.109Z,15.10
2018-09-23T00:58:15.735Z,14.80
2018-09-23T01:00:44.393Z,18.30
2018-09-23T01:03:12.947Z,13.90
2018-09-23T01:05:41.564Z,17.43
2018-09-23T01:08:10.141Z,16.73
2018-09-23T01:10:38.849Z,14.47
2018-09-23T01:13:07.530Z,18.43
2018-09-23T01:15:36.208Z,17.00
2018-09-23T01:18:04.847Z,18.20
2018-09-23T01:20:34.127Z,18.60
2018-09-23T01:23:02.756Z,16.40
2018-09-23T01:25:31.338Z,17.50
2018-09-23T01:27:59.968Z,17.87
2018-09-23T01:30:28.557Z,16.43
2018-09-23T01:32:57.151Z,18.80
2018-09-23T01:35:25.797Z,18.17
2018-09-23T01:37:54.430Z,17.30
2018-09-23T01:40:23.009Z,19.57
2018-09-23T01:42:51.645Z,18.30
2018-09-23T01:45:20.227Z,17.60
2018-09-23T01:47:48.827Z,18.13
2018-09-23T01:50:17.441Z,18.73
2018-09-23T01:52:46.023Z,16.33
2018-09-23T01:55:14.600Z,16.70
2018-09-23T01:57:43.206Z,18.27
2018-09-23T02:00:11.891Z,16.47
2018-09-23T02:02:40.466Z,19.57
2018-09-23T02:05:09.083Z,16.37
2018-09-23T02:07:37.656Z,17.17
2018-09-23T02:10:06.263Z,18.50
2018-09-23T02:12:34.898Z,18.40
2018-09-23T02:15:03.506Z,19.57
2018-09-23T02:17:32.107Z,15.70
2018-09-23T02:20:00.707Z,19.17
2018-09-23T02:22:29.287Z,20.67
2018-09-23T02:24:57.859Z,18.60
2018-09-23T02:27:26.457Z,20.60
2018-09-23T02:29:55.096Z,17.57
2018-09-23T02:32:23.672Z,17.83
2018-09-23T02:34:52.263Z,16.73
2018-09-23T02:37:20.845Z,18.03
2018-09-23T02:39:49.513Z,19.73
2018-09-23T02:42:18.165Z,18.87
2018-09-23T02:44:46.744Z,17.70
2018-09-23T02:47:15.343Z,16.87
2018-09-23T02:49:43.940Z,20.53
2018-09-23T02:52:12.531Z,20.60
2018-09-23T02:54:41.155Z,18.37
2018-09-23T02:57:09.756Z,18.23
2018-09-23T02:59:38.309Z,17.70
2018-09-23T03:02:06.908Z,18.53
2018-09-23T03:04:35.757Z,20.20
2018-09-23T03:07:04.425Z,21.30
2018-09-23T03:09:32.991Z,18.17
2018-09-23T03:12:01.580Z,20.77
2018-09-23T03:14:30.143Z,22.13
2018-09-23T03:16:58.721Z,17.73
2018-09-23T03:19:27.341Z,22.57
2018-09-23T03:21:55.939Z,19.73
2018-09-23T03:24:24.514Z,19.07
2018-09-23T03:26:53.109Z,20.20
2018-09-23T03:29:22.263Z,20.67
2018-09-23T03:31:50.903Z,19.43
2018-09-23T03:34:19.560Z,20.37
2018-09-23T03:36:48.199Z,20.40
2018-09-23T03:39:16.777Z,23.13
2018-09-23T03:41:45.390Z,19.73
2018-09-23T03:44:14.012Z,20.47
2018-09-23T03:46:43.340Z,22.53
2018-09-23T03:49:12.041Z,24.60
2018-09-23T03:51:40.633Z,22.87
2018-09-23T03:54:11.334Z,18.20
2018-09-23T03:56:40.233Z,23.60
2018-09-23T03:59:08.847Z,20.20
2018-09-23T04:01:37.538Z,23.37
2018-09-23T04:04:06.628Z,24.87
2018-09-23T04:06:35.578Z,27.27
2018-09-23T04:09:05.302Z,22.30
2018-09-23T04:11:33.922Z,22.57
2018-09-23T04:14:02.507Z,23.33
2018-09-23T04:16:31.082Z,22.00
2018-09-23T04:18:59.722Z,23.30
2018-09-23T04:21:28.294Z,28.47
2018-09-23T04:23:56.867Z,26.07
2018-09-23T04:26:25.486Z,21.53
2018-09-23T04:28:54.068Z,27.17
2018-09-23T04:31:22.650Z,23.37
2018-09-23T04:33:51.289Z,23.63
2018-09-23T04:36:19.907Z,27.27
2018-09-23T04:38:48.473Z,28.00
2018-09-23T04:41:17.134Z,24.37
2018-09-23T04:43:45.732Z,23.60
2018-09-23T04:46:14.362Z,26.93
2018-09-23T04:48:44.122Z,27.10
2018-09-23T04:51:12.883Z,23.27
2018-09-23T04:53:41.518Z,27.93
2018-09-23T04:56:10.146Z,22.63
2018-09-23T04:58:38.737Z,25.70
2018-09-23T05:01:07.325Z,22.77
2018-09-23T05:03:35.955Z,25.93
2018-09-23T05:06:04.563Z,24.93
2018-09-23T05:08:33.199Z,25.77
2018-09-23T05:11:01.828Z,24.33
2018-09-23T05:13:32.122Z,21.63
2018-09-23T05:16:01.101Z,27.50
2018-09-23T05:18:29.689Z,25.80
2018-09-23T05:20:58.760Z,25.83
2018-09-23T05:23:27.953Z,25.20
2018-09-23T05:25:59.677Z,26.70
2018-09-23T05:28:28.318Z,26.90
2018-09-23T05:30:56.953Z,23.90
2018-09-23T05:33:25.782Z,21.53
2018-09-23T05:35:54.588Z,23.93
2018-09-23T05:38:23.246Z,40.13
2018-09-23T05:40:51.812Z,28.73
2018-09-23T05:43:20.452Z,24.30
2018-09-23T05:45:49.078Z,23.53
2018-09-23T05:48:17.679Z,27.33
2018-09-23T05:50:46.353Z,28.83
2018-09-23T05:53:14.977Z,25.90
2018-09-23T05:55:43.509Z,27.47
2018-09-23T05:58:12.122Z,24.87
2018-09-23T06:00:43.734Z,24.23
2018-09-23T06:03:12.394Z,20.77
2018-09-23T06:05:40.959Z,26.13
2018-09-23T06:08:09.598Z,28.20
2018-09-23T06:10:38.213Z,25.70
2018-09-23T06:13:06.823Z,26.40
2018-09-23T06:15:35.432Z,24.23
2018-09-23T06:18:04.074Z,27.13
2018-09-23T06:20:32.705Z,28.80
2018-09-23T06:23:01.482Z,26.47
2018-09-23T06:25:30.417Z,24.30
2018-09-23T06:27:59.027Z,29.80
2018-09-23T06:30:27.650Z,25.27
2018-09-23T06:32:56.315Z,29.47
2018-09-23T06:35:24.975Z,29.60
2018-09-23T06:37:53.611Z,27.27
2018-09-23T06:40:22.285Z,26.87
2018-09-23T06:42:50.943Z,28.47
2018-09-23T06:45:19.564Z,28.93
2018-09-23T06:47:48.207Z,27.07
2018-09-23T06:50:16.820Z,28.23
2018-09-23T06:52:45.431Z,28.37
2018-09-23T06:55:14.119Z,29.27
2018-09-23T06:57:42.720Z,28.27
2018-09-23T07:00:11.350Z,28.40
2018-09-23T07:02:40.357Z,27.93
2018-09-23T07:05:08.992Z,31.33
2018-09-23T07:07:37.633Z,25.63
2018-09-23T07:10:06.730Z,28.90
2018-09-23T07:12:35.334Z,31.70
2018-09-23T07:15:04.217Z,27.60
2018-09-23T07:17:33.035Z,28.00
2018-09-23T07:20:01.647Z,28.17
2018-09-23T07:22:30.311Z,36.20
2018-09-23T07:24:59.059Z,27.23
2018-09-23T07:27:27.823Z,27.07
2018-09-23T07:29:56.492Z,30.90
2018-09-23T07:32:25.114Z,32.20
2018-09-23T07:35:00.212Z,28.20
2018-09-23T07:37:28.871Z,28.23
2018-09-23T07:39:57.546Z,36.40
2018-09-23T07:42:26.275Z,31.60
2018-09-23T07:44:54.908Z,35.23
2018-09-23T07:47:23.531Z,28.13
2018-09-23T07:49:52.177Z,34.13
2018-09-23T07:52:20.826Z,32.17
2018-09-23T07:54:49.434Z,33.87
2018-09-23T07:57:18.058Z,28.93
2018-09-23T07:59:46.712Z,30.73
2018-09-23T08:02:15.361Z,33.10
2018-09-23T08:04:44.017Z,29.20
2018-09-23T08:07:12.727Z,36.90
2018-09-23T08:09:41.356Z,33.90
2018-09-23T08:12:10.748Z,29.50
2018-09-23T08:14:39.765Z,28.30
2018-09-23T08:17:08.231Z,30.87
2018-09-23T08:19:37.026Z,32.23
2018-09-23T08:22:05.546Z,30.27
2018-09-23T08:24:34.217Z,29.73
2018-09-23T08:27:02.847Z,30.80
2018-09-23T08:29:31.529Z,32.07
2018-09-23T08:32:00.189Z,30.87
2018-09-23T08:34:28.877Z,29.53
2018-09-23T08:36:57.530Z,30.30
2018-09-23T08:39:26.163Z,28.10
2018-09-23T08:41:54.870Z,30.50
2018-09-23T08:44:23.515Z,35.83
2018-09-23T08:46:52.193Z,25.97
2018-09-23T08:49:20.935Z,31.53
2018-09-23T08:51:49.615Z,29.27
2018-09-23T08:54:18.239Z,25.63
2018-09-23T08:56:46.864Z,26.40
2018-09-23T08:59:15.516Z,31.50
2018-09-23T09:01:44.786Z,28.03
2018-09-23T09:04:13.413Z,27.43
2018-09-23T09:06:42.090Z,23.67
2018-09-23T09:09:10.719Z,24.27
2018-09-23T09:11:39.397Z,25.77
2018-09-23T09:14:08.014Z,28.40
2018-09-23T09:16:36.680Z,26.03
2018-09-23T09:19:05.336Z,23.00
2018-09-23T09:21:33.990Z,25.30
2018-09-23T09:24:02.611Z,24.80
2018-09-23T09:26:31.279Z,25.27
2018-09-23T09:28:59.896Z,24.77
2018-09-23T09:31:28.490Z,29.67
2018-09-23T09:33:57.453Z,27.30
2018-09-23T09:36:26.147Z,24.83
2018-09-23T09:38:54.786Z,30.10
2018-09-23T09:41:23.439Z,32.50
2018-09-23T09:43:52.081Z,28.23
2018-09-23T09:46:20.804Z,27.30
2018-09-23T09:48:49.450Z,28.33
2018-09-23T09:51:18.166Z,26.43
2018-09-23T09:53:46.806Z,26.10
2018-09-23T09:56:15.435Z,24.60
2018-09-23T09:58:44.084Z,27.20
2018-09-23T10:01:12.692Z,24.50
2018-09-23T10:03:41.358Z,26.07
2018-09-23T10:06:10.054Z,23.93
2018-09-23T10:08:38.698Z,27.40
2018-09-23T10:11:07.342Z,26.93
2018-09-23T10:13:36.024Z,26.73
2018-09-23T10:16:04.708Z,28.40
2018-09-23T10:18:33.379Z,28.47
2018-09-23T10:21:02.025Z,24.60
2018-09-23T10:23:30.795Z,26.27
2018-09-23T10:25:59.742Z,26.20
2018-09-23T10:28:28.596Z,26.83
2018-09-23T10:30:57.313Z,29.93
2018-09-23T10:33:26.032Z,28.07
2018-09-23T10:35:55.529Z,26.93
2018-09-23T10:38:24.370Z,28.87
2018-09-23T10:40:53.010Z,26.37
2018-09-23T10:43:21.970Z,31.80
2018-09-23T10:45:50.637Z,28.33
2018-09-23T10:48:22.201Z,24.87
2018-09-23T10:50:50.904Z,24.70
2018-09-23T10:53:19.579Z,24.53
2018-09-23T10:55:48.278Z,30.10
2018-09-23T10:58:16.916Z,27.93
2018-09-23T11:00:45.600Z,24.57
2018-09-23T11:03:14.293Z,24.37
2018-09-23T11:05:43.025Z,26.67
2018-09-23T11:08:11.714Z,26.83
2018-09-23T11:10:40.423Z,25.97
2018-09-23T11:13:09.185Z,26.10
2018-09-23T11:15:37.936Z,26.90
2018-09-23T11:18:06.777Z,24.07
2018-09-23T11:20:39.250Z,26.17
2018-09-23T11:23:08.032Z,26.73
2018-09-23T11:25:36.676Z,29.57
2018-09-23T11:28:05.471Z,27.10
2018-09-23T11:30:34.179Z,28.13
2018-09-23T11:33:02.834Z,26.48
2018-09-23T11:35:31.467Z,27.13
2018-09-23T11:38:00.287Z,27.23
2018-09-23T11:40:28.977Z,28.53
2018-09-23T11:42:57.734Z,31.13
2018-09-23T11:45:27.296Z,28.40
2018-09-23T11:47:55.960Z,25.23
2018-09-23T11:50:24.705Z,28.10
2018-09-23T11:52:53.390Z,27.27
2018-09-23T11:55:22.071Z,25.77
2018-09-23T11:57:50.761Z,26.80
2018-09-23T12:00:19.454Z,28.17
2018-09-23T12:02:48.192Z,28.77
2018-09-23T12:05:28.373Z,27.50
2018-09-23T12:07:57.092Z,24.30
2018-09-23T12:10:25.832Z,25.40
2018-09-23T12:12:54.807Z,29.17
2018-09-23T12:15:23.958Z,26.03
2018-09-23T12:17:52.623Z,24.73
2018-09-23T12:20:22.008Z,26.53
2018-09-23T12:22:50.718Z,27.93
2018-09-23T12:25:19.484Z,25.60
2018-09-23T12:27:48.250Z,24.20
2018-09-23T12:30:17.664Z,28.63
2018-09-23T12:32:46.386Z,28.40
2018-09-23T12:35:15.096Z,25.93
2018-09-23T12:37:43.873Z,25.60
2018-09-23T12:40:12.544Z,18.07
2018-09-23T12:42:42.726Z,14.30
2018-09-23T12:45:11.382Z,16.60
2018-09-23T12:47:40.036Z,16.27
2018-09-23T12:50:08.850Z,13.30
2018-09-23T12:52:37.479Z,13.77
2018-09-23T12:55:06.621Z,12.97
2018-09-23T12:57:35.270Z,12.07
2018-09-23T13:00:04.335Z,11.27
2018-09-23T13:02:33.136Z,12.10
2018-09-23T13:05:01.829Z,11.73
2018-09-23T13:07:32.504Z,12.80
2018-09-23T13:10:01.210Z,11.07
2018-09-23T13:12:29.974Z,8.77
2018-09-23T13:14:58.716Z,10.17
2018-09-23T13:17:33.855Z,9.53
2018-09-23T13:20:02.529Z,7.70
2018-09-23T13:22:31.240Z,11.77
2018-09-23T13:24:59.936Z,13.00
2018-09-23T13:27:28.755Z,14.03
2018-09-23T13:29:57.523Z,11.67
2018-09-23T13:32:26.266Z,11.03
2018-09-23T13:34:54.942Z,13.90
2018-09-23T13:37:23.582Z,12.70
2018-09-23T13:39:52.252Z,9.57
2018-09-23T13:42:20.921Z,7.53
2018-09-23T13:44:49.573Z,6.07
2018-09-23T13:47:18.234Z,7.53
2018-09-23T13:49:46.891Z,8.40
2018-09-23T13:52:15.574Z,7.37
2018-09-23T13:54:44.253Z,6.30
2018-09-23T13:57:12.894Z,7.47
2018-09-23T13:59:41.602Z,9.47
2018-09-23T14:02:10.317Z,4.53
2018-09-23T14:04:38.954Z,5.97
2018-09-23T14:07:07.645Z,3.90
2018-09-23T14:09:36.409Z,3.47
2018-09-23T14:12:05.141Z,5.67
2018-09-23T14:14:33.791Z,8.33
2018-09-23T14:17:02.532Z,2.90
2018-09-23T14:19:31.264Z,3.93
2018-09-23T14:21:59.929Z,2.37
2018-09-23T14:24:28.613Z,2.17
2018-09-23T14:26:57.236Z,4.00
2018-09-23T14:29:25.861Z,2.50
2018-09-23T14:31:54.618Z,2.30
2018-09-23T14:34:23.287Z,3.47
2018-09-23T14:36:51.961Z,2.77
2018-09-23T14:39:20.684Z,3.63
2018-09-23T14:41:49.746Z,1.33
2018-09-23T14:44:18.468Z,3.23
2018-09-23T14:46:47.224Z,3.73
2018-09-23T14:49:15.901Z,1.07
2018-09-23T14:51:44.647Z,1.60
2018-09-23T14:54:13.448Z,1.63
2018-09-23T14:56:42.081Z,1.20
2018-09-23T14:59:10.783Z,1.07
2018-09-23T15:01:39.531Z,2.63
2018-09-23T15:04:08.183Z,1.00
2018-09-23T15:06:36.896Z,2.40
2018-09-23T15:09:08.332Z,2.80
2018-09-23T15:11:37.186Z,3.53
2018-09-23T15:14:05.918Z,2.03
2018-09-23T15:16:35.595Z,4.00
2018-09-23T15:19:04.327Z,2.70
2018-09-23T15:21:32.966Z,2.83
2018-09-23T15:24:01.624Z,0.73
2018-09-23T15:26:30.255Z,1.70
2018-09-23T15:28:58.946Z,2.67
2018-09-23T15:31:27.610Z,2.30
2018-09-23T15:33:57.168Z,2.20
2018-09-23T15:36:25.868Z,2.47
2018-09-23T15:38:54.546Z,1.57
2018-09-23T15:41:23.246Z,3.30
2018-09-23T15:43:52.009Z,1.53
2018-09-23T15:46:20.710Z,2.40
2018-09-23T15:48:49.458Z,4.33
2018-09-23T15:51:18.089Z,4.03
2018-09-23T15:53:46.826Z,3.57
2018-09-23T15:56:16.368Z,4.50
2018-09-23T15:58:45.032Z,3.57
2018-09-23T16:01:13.696Z,2.27
2018-09-23T16:03:42.336Z,3.93
2018-09-23T16:06:10.987Z,1.10
2018-09-23T16:08:39.710Z,1.60
2018-09-23T16:11:08.339Z,3.63
2018-09-23T16:13:36.983Z,1.57
2018-09-23T16:16:05.682Z,4.20
2018-09-23T16:18:34.439Z,1.53
2018-09-23T16:21:03.102Z,1.93
2018-09-23T16:23:32.021Z,3.53
2018-09-23T16:26:00.709Z,1.47
2018-09-23T16:28:29.402Z,3.17
2018-09-23T16:30:58.229Z,12.57
2018-09-23T16:33:27.934Z,6.10
2018-09-23T16:35:56.688Z,9.50
2018-09-23T16:38:25.507Z,3.40
2018-09-23T16:40:54.230Z,2.57
2018-09-23T16:43:22.975Z,3.50
2018-09-23T16:45:51.666Z,2.60
2018-09-23T16:48:20.321Z,3.00
2018-09-23T16:50:48.962Z,3.90
2018-09-23T16:53:17.697Z,3.77
2018-09-23T16:55:46.356Z,5.20
2018-09-23T16:58:14.978Z,4.03
2018-09-23T17:00:43.872Z,4.00
2018-09-23T17:03:12.380Z,4.43
2018-09-23T17:05:41.115Z,2.07
2018-09-23T17:08:09.831Z,3.83
2018-09-23T17:10:38.509Z,6.50
2018-09-23T17:13:07.186Z,1.97
2018-09-23T17:15:35.918Z,3.30
2018-09-23T17:18:04.632Z,1.83
2018-09-23T17:20:33.319Z,11.33
2018-09-23T17:23:02.057Z,4.67
2018-09-23T17:25:30.771Z,6.90
2018-09-23T17:27:59.501Z,3.17
2018-09-23T17:30:28.171Z,3.10
2018-09-23T17:32:57.790Z,4.47
2018-09-23T17:35:26.484Z,6.30
2018-09-23T17:37:55.185Z,6.10
2018-09-23T17:40:24.625Z,4.87
2018-09-23T17:42:53.359Z,5.50
2018-09-23T17:45:22.098Z,5.37
2018-09-23T17:47:50.741Z,6.60
2018-09-23T17:50:20.376Z,2.47
2018-09-23T17:52:49.150Z,2.53
2018-09-23T17:55:17.827Z,4.50
2018-09-23T17:57:46.480Z,7.07
2018-09-23T18:00:15.235Z,2.30
2018-09-23T18:02:44.626Z,4.60
2018-09-23T18:05:13.361Z,4.83
2018-09-23T18:07:42.014Z,4.93
2018-09-23T18:10:10.747Z,5.23
2018-09-23T18:12:39.515Z,2.60
2018-09-23T18:15:08.341Z,6.00
2018-09-23T18:17:36.980Z,3.60
2018-09-23T18:20:06.870Z,3.00
2018-09-23T18:22:36.321Z,6.37
2018-09-23T18:25:05.046Z,8.40
2018-09-23T18:27:33.704Z,6.53
2018-09-23T18:30:02.443Z,4.17
2018-09-23T18:32:31.057Z,3.47
2018-09-23T18:34:59.815Z,4.67
2018-09-23T18:37:28.563Z,1.87
2018-09-23T18:39:57.256Z,6.90
2018-09-23T18:42:25.954Z,2.73
2018-09-23T18:44:54.865Z,3.10
2018-09-23T18:47:23.582Z,5.97
2018-09-23T18:49:52.396Z,11.50
2018-09-23T18:52:21.084Z,5.73
2018-09-23T18:54:55.083Z,5.13
2018-09-23T18:57:23.788Z,4.93
2018-09-23T18:59:53.921Z,9.30
2018-09-23T19:02:22.616Z,4.07
2018-09-23T19:04:53.234Z,6.47
2018-09-23T19:07:21.870Z,3.07
2018-09-23T19:09:50.685Z,3.97
2018-09-23T19:12:19.417Z,4.30
2018-09-23T19:14:48.117Z,4.27
2018-09-23T19:17:16.822Z,4.57
2018-09-23T19:19:50.953Z,3.07
2018-09-23T19:22:25.030Z,4.10
2018-09-23T19:24:53.721Z,5.87
2018-09-23T19:27:22.386Z,7.20
2018-09-23T19:29:51.035Z,4.23
2018-09-23T19:32:20.001Z,2.57
2018-09-23T19:34:48.668Z,1.87
2018-09-23T19:37:17.327Z,2.67
2018-09-23T19:39:46.025Z,3.10
2018-09-23T19:42:14.837Z,3.63
2018-09-23T19:44:43.713Z,3.23
2018-09-23T19:47:12.378Z,4.47
2018-09-23T19:49:41.725Z,2.93
2018-09-23T19:52:10.391Z,5.43
2018-09-23T19:54:39.096Z,2.77
2018-09-23T19:57:07.407Z,6.43
2018-09-23T19:59:36.065Z,3.70
2018-09-23T20:02:04.763Z,1.40
2018-09-23T20:04:33.450Z,2.87
2018-09-23T20:07:02.229Z,6.87
2018-09-23T20:09:30.953Z,5.47
2018-09-23T20:11:59.618Z,3.10
2018-09-23T20:14:28.301Z,5.07
2018-09-23T20:16:56.987Z,4.23
2018-09-23T20:19:25.616Z,1.97
2018-09-23T20:21:54.230Z,4.27
2018-09-23T20:24:23.171Z,7.50
2018-09-23T20:26:51.917Z,5.87
2018-09-23T20:29:20.607Z,3.83
2018-09-23T20:31:49.287Z,5.00
2018-09-23T20:34:17.914Z,10.73
2018-09-23T20:36:46.649Z,2.20
2018-09-23T20:39:15.435Z,6.77
2018-09-23T20:41:44.075Z,5.40
2018-09-23T20:44:12.769Z,4.67
2018-09-23T20:46:41.591Z,6.57
2018-09-23T20:49:10.271Z,5.57
2018-09-23T20:51:38.930Z,3.87
2018-09-23T20:54:07.720Z,7.93
2018-09-23T20:56:36.619Z,2.83
2018-09-23T20:59:05.304Z,5.33
2018-09-23T21:01:34.018Z,9.07
2018-09-23T21:04:02.785Z,2.97
2018-09-23T21:06:31.570Z,7.03
2018-09-23T21:09:00.498Z,3.97
2018-09-23T21:11:29.390Z,2.93
2018-09-23T21:13:58.333Z,3.83
2018-09-23T21:16:30.974Z,3.83
2018-09-23T21:18:59.683Z,4.13
2018-09-23T21:21:28.508Z,3.47
2018-09-23T21:23:57.198Z,1.90
2018-09-23T21:26:25.892Z,3.77
2018-09-23T21:28:54.576Z,2.70
2018-09-23T21:31:23.579Z,2.93
2018-09-23T21:33:52.223Z,3.27
2018-09-23T21:36:21.704Z,1.17
2018-09-23T21:38:50.436Z,5.00
2018-09-23T21:41:19.098Z,3.77
2018-09-23T21:43:47.732Z,3.97
2018-09-23T21:46:16.422Z,7.63
2018-09-23T21:48:45.861Z,1.83
2018-09-23T21:51:14.514Z,4.50
2018-09-23T21:53:43.204Z,3.57
2018-09-23T21:56:11.904Z,5.83
2018-09-23T21:58:40.675Z,4.07
2018-09-23T22:01:09.616Z,3.97
2018-09-23T22:03:38.297Z,3.03
2018-09-23T22:06:07.257Z,2.60
2018-09-23T22:08:35.963Z,1.60
2018-09-23T22:11:04.832Z,2.40
2018-09-23T22:13:33.533Z,2.93
2018-09-23T22:16:02.188Z,3.80
2018-09-23T22:18:30.876Z,4.67
2018-09-23T22:20:59.522Z,5.40
2018-09-23T22:23:28.209Z,5.97
2018-09-23T22:25:56.935Z,5.00
2018-09-23T22:28:25.561Z,2.43
2018-09-23T22:30:54.240Z,3.03
2018-09-23T22:33:22.879Z,6.67
2018-09-23T22:35:51.540Z,6.23
2018-09-23T22:38:20.274Z,4.07
2018-09-23T22:40:48.854Z,1.70
2018-09-23T22:43:17.470Z,3.90
2018-09-23T22:45:46.236Z,1.97
2018-09-23T22:48:15.022Z,7.17
2018-09-23T22:50:43.620Z,5.37
2018-09-23T22:53:12.536Z,2.77
2018-09-23T22:55:41.325Z,2.30
2018-09-23T22:58:10.025Z,2.47
2018-09-23T23:00:38.661Z,2.43
2018-09-23T23:03:07.345Z,4.83
2018-09-23T23:05:35.978Z,4.63
2018-09-23T23:08:04.618Z,2.73
2018-09-23T23:10:33.257Z,3.43
2018-09-23T23:13:01.913Z,2.03
2018-09-23T23:15:30.591Z,4.17
2018-09-23T23:17:59.220Z,4.20
2018-09-23T23:20:27.885Z,2.13
2018-09-23T23:22:56.523Z,2.80
2018-09-23T23:25:25.117Z,3.70
2018-09-23T23:27:53.714Z,4.43
2018-09-23T23:30:22.421Z,4.23
2018-09-23T23:32:51.009Z,6.77
2018-09-23T23:35:19.600Z,4.73
2018-09-23T23:37:48.279Z,3.53
2018-09-23T23:40:16.947Z,1.87
2018-09-23T23:42:45.567Z,4.27
2018-09-23T23:45:14.235Z,7.63
2018-09-23T23:47:42.868Z,1.40
2018-09-23T23:50:11.511Z,2.90
2018-09-23T23:52:40.186Z,4.90
2018-09-23T23:55:08.405Z,5.07
2018-09-23T23:57:36.998Z,3.23
